sensor_id;sensor_type;location;lat;lon;timestamp;P1;durP1;ratioP1;P2;durP2;ratioP2
29568;SDS011;16501;51.462;14.346;2023-06-19T00:01:07;13.48;;;11.65;;
29568;SDS011;16501;51.462;14.346;2023-06-19T00:03:33;13.90;;;10.85;;
29568;SDS011;16501;51.462;14.346;2023-06-19T00:05:58;13.32;;;11.30;;
29568;SDS011;16501;51.462;14.346;2023-06-19T00:08:23;13.18;;;11.77;;
29568;SDS011;16501;51.462;14.346;2023-06-19T00:10:48;12.80;;;11.38;;
29568;SDS011;16501;51.462;14.346;2023-06-19T00:13:14;14.32;;;12.23;;
29568;SDS011;16501;51.462;14.346;2023-06-19T00:15:39;12.15;;;10.98;;
29568;SDS011;16501;51.462;14.346;2023-06-19T00:18:05;12.45;;;11.05;;
29568;SDS011;16501;51.462;14.346;2023-06-19T00:20:31;12.80;;;11.52;;
29568;SDS011;16501;51.462;14.346;2023-06-19T00:22:57;12.02;;;10.73;;
29568;SDS011;16501;51.462;14.346;2023-06-19T00:25:22;13.25;;;11.32;;
29568;SDS011;16501;51.462;14.346;2023-06-19T00:27:48;11.18;;;10.02;;
29568;SDS011;16501;51.462;14.346;2023-06-19T00:30:13;12.75;;;11.45;;
29568;SDS011;16501;51.462;14.346;2023-06-19T00:32:39;13.43;;;12.00;;
29568;SDS011;16501;51.462;14.346;2023-06-19T00:35:14;13.82;;;12.23;;
29568;SDS011;16501;51.462;14.346;2023-06-19T00:37:41;13.27;;;11.93;;
29568;SDS011;16501;51.462;14.346;2023-06-19T00:40:14;14.68;;;12.45;;
29568;SDS011;16501;51.462;14.346;2023-06-19T00:42:46;14.00;;;12.35;;
29568;SDS011;16501;51.462;14.346;2023-06-19T00:45:11;14.13;;;12.63;;
29568;SDS011;16501;51.462;14.346;2023-06-19T00:47:36;19.13;;;12.10;;
29568;SDS011;16501;51.462;14.346;2023-06-19T00:50:02;16.38;;;12.55;;
29568;SDS011;16501;51.462;14.346;2023-06-19T00:52:27;14.75;;;11.80;;
29568;SDS011;16501;51.462;14.346;2023-06-19T00:54:53;15.35;;;12.13;;
29568;SDS011;16501;51.462;14.346;2023-06-19T00:57:18;15.52;;;12.30;;
29568;SDS011;16501;51.462;14.346;2023-06-19T00:59:44;12.93;;;11.63;;
29568;SDS011;16501;51.462;14.346;2023-06-19T01:02:09;13.27;;;11.88;;
29568;SDS011;16501;51.462;14.346;2023-06-19T01:04:34;13.30;;;11.90;;
29568;SDS011;16501;51.462;14.346;2023-06-19T01:07:02;14.98;;;12.77;;
29568;SDS011;16501;51.462;14.346;2023-06-19T01:09:36;14.25;;;12.65;;
29568;SDS011;16501;51.462;14.346;2023-06-19T01:12:19;13.23;;;11.80;;
29568;SDS011;16501;51.462;14.346;2023-06-19T01:17:18;19.48;;;12.60;;
29568;SDS011;16501;51.462;14.346;2023-06-19T01:19:44;14.82;;;12.60;;
29568;SDS011;16501;51.462;14.346;2023-06-19T01:22:09;14.73;;;13.15;;
29568;SDS011;16501;51.462;14.346;2023-06-19T01:24:34;19.00;;;14.55;;
29568;SDS011;16501;51.462;14.346;2023-06-19T01:26:59;16.58;;;14.02;;
29568;SDS011;16501;51.462;14.346;2023-06-19T01:29:25;14.38;;;12.88;;
29568;SDS011;16501;51.462;14.346;2023-06-19T01:31:52;14.57;;;13.07;;
29568;SDS011;16501;51.462;14.346;2023-06-19T01:34:23;14.40;;;12.90;;
29568;SDS011;16501;51.462;14.346;2023-06-19T01:36:52;15.20;;;13.52;;
29568;SDS011;16501;51.462;14.346;2023-06-19T01:39:20;14.70;;;12.85;;
29568;SDS011;16501;51.462;14.346;2023-06-19T01:41:45;16.48;;;13.35;;
29568;SDS011;16501;51.462;14.346;2023-06-19T01:44:12;15.23;;;13.63;;
29568;SDS011;16501;51.462;14.346;2023-06-19T01:46:40;15.98;;;13.63;;
29568;SDS011;16501;51.462;14.346;2023-06-19T01:49:06;18.58;;;14.32;;
29568;SDS011;16501;51.462;14.346;2023-06-19T01:51:32;19.42;;;14.15;;
29568;SDS011;16501;51.462;14.346;2023-06-19T01:53:58;16.92;;;15.10;;
29568;SDS011;16501;51.462;14.346;2023-06-19T01:56:23;15.95;;;14.30;;
29568;SDS011;16501;51.462;14.346;2023-06-19T01:58:49;15.52;;;13.85;;
29568;SDS011;16501;51.462;14.346;2023-06-19T02:01:14;17.30;;;14.90;;
29568;SDS011;16501;51.462;14.346;2023-06-19T02:03:39;15.48;;;13.88;;
29568;SDS011;16501;51.462;14.346;2023-06-19T02:06:04;17.17;;;14.82;;
29568;SDS011;16501;51.462;14.346;2023-06-19T02:08:32;17.38;;;15.40;;
29568;SDS011;16501;51.462;14.346;2023-06-19T02:10:57;16.38;;;14.68;;
29568;SDS011;16501;51.462;14.346;2023-06-19T02:13:23;17.25;;;15.00;;
29568;SDS011;16501;51.462;14.346;2023-06-19T02:15:48;19.45;;;15.93;;
29568;SDS011;16501;51.462;14.346;2023-06-19T02:18:13;18.45;;;15.25;;
29568;SDS011;16501;51.462;14.346;2023-06-19T02:20:39;16.17;;;14.48;;
29568;SDS011;16501;51.462;14.346;2023-06-19T02:23:04;15.80;;;14.10;;
29568;SDS011;16501;51.462;14.346;2023-06-19T02:25:29;17.45;;;14.57;;
29568;SDS011;16501;51.462;14.346;2023-06-19T02:27:54;18.08;;;14.73;;
29568;SDS011;16501;51.462;14.346;2023-06-19T02:30:20;16.20;;;14.50;;
29568;SDS011;16501;51.462;14.346;2023-06-19T02:32:45;15.75;;;14.05;;
29568;SDS011;16501;51.462;14.346;2023-06-19T02:35:10;15.93;;;13.93;;
29568;SDS011;16501;51.462;14.346;2023-06-19T02:37:36;17.73;;;14.57;;
29568;SDS011;16501;51.462;14.346;2023-06-19T02:40:05;17.08;;;15.27;;
29568;SDS011;16501;51.462;14.346;2023-06-19T02:42:31;17.13;;;14.98;;
29568;SDS011;16501;51.462;14.346;2023-06-19T02:44:57;16.63;;;14.80;;
29568;SDS011;16501;51.462;14.346;2023-06-19T02:47:27;18.00;;;16.10;;
29568;SDS011;16501;51.462;14.346;2023-06-19T02:49:53;16.38;;;14.63;;
29568;SDS011;16501;51.462;14.346;2023-06-19T02:52:18;21.02;;;15.60;;
29568;SDS011;16501;51.462;14.346;2023-06-19T02:54:43;16.45;;;14.70;;
29568;SDS011;16501;51.462;14.346;2023-06-19T02:57:09;18.92;;;16.25;;
29568;SDS011;16501;51.462;14.346;2023-06-19T02:59:34;23.33;;;17.08;;
29568;SDS011;16501;51.462;14.346;2023-06-19T03:01:59;18.55;;;16.02;;
29568;SDS011;16501;51.462;14.346;2023-06-19T03:04:24;19.08;;;14.75;;
29568;SDS011;16501;51.462;14.346;2023-06-19T03:06:50;20.38;;;15.75;;
29568;SDS011;16501;51.462;14.346;2023-06-19T03:09:15;18.65;;;16.65;;
29568;SDS011;16501;51.462;14.346;2023-06-19T03:11:40;21.15;;;16.70;;
29568;SDS011;16501;51.462;14.346;2023-06-19T03:14:06;21.13;;;17.23;;
29568;SDS011;16501;51.462;14.346;2023-06-19T03:16:32;19.40;;;16.08;;
29568;SDS011;16501;51.462;14.346;2023-06-19T03:18:58;18.77;;;16.42;;
29568;SDS011;16501;51.462;14.346;2023-06-19T03:21:23;17.75;;;15.85;;
29568;SDS011;16501;51.462;14.346;2023-06-19T03:23:48;18.55;;;15.70;;
29568;SDS011;16501;51.462;14.346;2023-06-19T03:26:14;16.90;;;14.95;;
29568;SDS011;16501;51.462;14.346;2023-06-19T03:28:39;23.85;;;15.27;;
29568;SDS011;16501;51.462;14.346;2023-06-19T03:31:04;18.10;;;15.35;;
29568;SDS011;16501;51.462;14.346;2023-06-19T03:33:29;18.95;;;15.85;;
29568;SDS011;16501;51.462;14.346;2023-06-19T03:35:55;17.65;;;15.80;;
29568;SDS011;16501;51.462;14.346;2023-06-19T03:38:20;17.15;;;15.32;;
29568;SDS011;16501;51.462;14.346;2023-06-19T03:40:45;16.05;;;14.35;;
29568;SDS011;16501;51.462;14.346;2023-06-19T03:43:13;17.20;;;15.32;;
29568;SDS011;16501;51.462;14.346;2023-06-19T03:45:39;22.85;;;15.68;;
29568;SDS011;16501;51.462;14.346;2023-06-19T03:48:04;21.23;;;15.48;;
29568;SDS011;16501;51.462;14.346;2023-06-19T03:50:29;16.73;;;14.95;;
29568;SDS011;16501;51.462;14.346;2023-06-19T03:52:55;19.75;;;14.88;;
29568;SDS011;16501;51.462;14.346;2023-06-19T03:55:20;21.75;;;15.45;;
29568;SDS011;16501;51.462;14.346;2023-06-19T03:57:45;17.40;;;15.50;;
29568;SDS011;16501;51.462;14.346;2023-06-19T04:00:13;20.05;;;15.20;;
29568;SDS011;16501;51.462;14.346;2023-06-19T04:02:39;17.95;;;14.85;;
29568;SDS011;16501;51.462;14.346;2023-06-19T04:05:05;16.92;;;14.45;;
29568;SDS011;16501;51.462;14.346;2023-06-19T04:07:31;16.58;;;14.80;;
29568;SDS011;16501;51.462;14.346;2023-06-19T04:09:57;16.75;;;13.90;;
29568;SDS011;16501;51.462;14.346;2023-06-19T04:12:23;16.35;;;13.90;;
29568;SDS011;16501;51.462;14.346;2023-06-19T04:14:49;16.80;;;14.95;;
29568;SDS011;16501;51.462;14.346;2023-06-19T04:17:14;18.20;;;13.98;;
29568;SDS011;16501;51.462;14.346;2023-06-19T04:19:40;15.90;;;14.20;;
29568;SDS011;16501;51.462;14.346;2023-06-19T04:22:05;18.00;;;13.48;;
29568;SDS011;16501;51.462;14.346;2023-06-19T04:24:30;14.93;;;13.13;;
29568;SDS011;16501;51.462;14.346;2023-06-19T04:26:56;20.50;;;13.70;;
29568;SDS011;16501;51.462;14.346;2023-06-19T04:29:21;15.90;;;13.60;;
29568;SDS011;16501;51.462;14.346;2023-06-19T04:31:46;15.35;;;13.32;;
29568;SDS011;16501;51.462;14.346;2023-06-19T04:34:21;18.05;;;15.02;;
29568;SDS011;16501;51.462;14.346;2023-06-19T04:36:47;18.95;;;16.45;;
29568;SDS011;16501;51.462;14.346;2023-06-19T04:39:12;20.85;;;18.52;;
29568;SDS011;16501;51.462;14.346;2023-06-19T04:41:38;17.95;;;16.10;;
29568;SDS011;16501;51.462;14.346;2023-06-19T04:44:06;16.73;;;14.93;;
29568;SDS011;16501;51.462;14.346;2023-06-19T04:46:31;19.88;;;17.10;;
29568;SDS011;16501;51.462;14.346;2023-06-19T04:48:56;21.95;;;15.77;;
29568;SDS011;16501;51.462;14.346;2023-06-19T04:51:21;18.52;;;15.02;;
29568;SDS011;16501;51.462;14.346;2023-06-19T04:53:47;16.38;;;14.52;;
29568;SDS011;16501;51.462;14.346;2023-06-19T04:56:13;15.73;;;13.90;;
29568;SDS011;16501;51.462;14.346;2023-06-19T04:58:39;16.35;;;14.52;;
29568;SDS011;16501;51.462;14.346;2023-06-19T05:01:10;16.73;;;14.90;;
29568;SDS011;16501;51.462;14.346;2023-06-19T05:03:36;16.08;;;14.40;;
29568;SDS011;16501;51.462;14.346;2023-06-19T05:06:01;19.20;;;15.60;;
29568;SDS011;16501;51.462;14.346;2023-06-19T05:08:27;18.52;;;14.98;;
29568;SDS011;16501;51.462;14.346;2023-06-19T05:10:52;16.05;;;14.35;;
29568;SDS011;16501;51.462;14.346;2023-06-19T05:13:18;18.45;;;15.70;;
29568;SDS011;16501;51.462;14.346;2023-06-19T05:15:44;20.10;;;15.68;;
29568;SDS011;16501;51.462;14.346;2023-06-19T05:18:09;16.67;;;14.98;;
29568;SDS011;16501;51.462;14.346;2023-06-19T05:20:34;19.05;;;15.68;;
29568;SDS011;16501;51.462;14.346;2023-06-19T05:22:59;17.80;;;16.00;;
29568;SDS011;16501;51.462;14.346;2023-06-19T05:25:25;20.88;;;15.85;;
29568;SDS011;16501;51.462;14.346;2023-06-19T05:27:50;16.45;;;14.27;;
29568;SDS011;16501;51.462;14.346;2023-06-19T05:30:15;17.98;;;15.13;;
29568;SDS011;16501;51.462;14.346;2023-06-19T05:32:40;19.77;;;14.05;;
29568;SDS011;16501;51.462;14.346;2023-06-19T05:35:06;20.23;;;14.38;;
29568;SDS011;16501;51.462;14.346;2023-06-19T05:37:31;20.08;;;15.00;;
29568;SDS011;16501;51.462;14.346;2023-06-19T05:39:57;16.88;;;14.60;;
29568;SDS011;16501;51.462;14.346;2023-06-19T05:42:22;18.02;;;14.95;;
29568;SDS011;16501;51.462;14.346;2023-06-19T05:44:47;18.33;;;15.07;;
29568;SDS011;16501;51.462;14.346;2023-06-19T05:47:13;16.65;;;14.93;;
29568;SDS011;16501;51.462;14.346;2023-06-19T05:49:39;21.67;;;14.88;;
29568;SDS011;16501;51.462;14.346;2023-06-19T05:52:06;18.20;;;15.18;;
29568;SDS011;16501;51.462;14.346;2023-06-19T05:54:31;16.70;;;14.95;;
29568;SDS011;16501;51.462;14.346;2023-06-19T05:56:56;18.25;;;15.13;;
29568;SDS011;16501;51.462;14.346;2023-06-19T05:59:22;17.48;;;15.25;;
29568;SDS011;16501;51.462;14.346;2023-06-19T06:01:47;17.17;;;13.38;;
29568;SDS011;16501;51.462;14.346;2023-06-19T06:04:12;18.25;;;14.90;;
29568;SDS011;16501;51.462;14.346;2023-06-19T06:06:38;18.50;;;14.82;;
29568;SDS011;16501;51.462;14.346;2023-06-19T06:09:04;15.98;;;14.30;;
29568;SDS011;16501;51.462;14.346;2023-06-19T06:11:29;16.35;;;13.82;;
29568;SDS011;16501;51.462;14.346;2023-06-19T06:13:55;15.82;;;14.13;;
29568;SDS011;16501;51.462;14.346;2023-06-19T06:16:20;15.98;;;13.68;;
29568;SDS011;16501;51.462;14.346;2023-06-19T06:18:45;15.95;;;14.20;;
29568;SDS011;16501;51.462;14.346;2023-06-19T06:21:11;15.38;;;13.57;;
29568;SDS011;16501;51.462;14.346;2023-06-19T06:23:37;16.02;;;13.95;;
29568;SDS011;16501;51.462;14.346;2023-06-19T06:26:03;17.30;;;13.52;;
29568;SDS011;16501;51.462;14.346;2023-06-19T06:28:28;15.15;;;13.13;;
29568;SDS011;16501;51.462;14.346;2023-06-19T06:30:54;16.42;;;13.95;;
29568;SDS011;16501;51.462;14.346;2023-06-19T06:33:19;14.85;;;13.35;;
29568;SDS011;16501;51.462;14.346;2023-06-19T06:35:44;15.55;;;13.93;;
29568;SDS011;16501;51.462;14.346;2023-06-19T06:38:10;19.00;;;13.57;;
29568;SDS011;16501;51.462;14.346;2023-06-19T06:40:35;13.48;;;11.85;;
29568;SDS011;16501;51.462;14.346;2023-06-19T06:43:01;12.40;;;11.13;;
29568;SDS011;16501;51.462;14.346;2023-06-19T06:45:26;12.30;;;10.82;;
29568;SDS011;16501;51.462;14.346;2023-06-19T06:47:52;11.48;;;10.00;;
29568;SDS011;16501;51.462;14.346;2023-06-19T06:50:17;13.27;;;9.95;;
29568;SDS011;16501;51.462;14.346;2023-06-19T06:52:42;17.48;;;10.23;;
29568;SDS011;16501;51.462;14.346;2023-06-19T06:55:07;11.52;;;9.70;;
29568;SDS011;16501;51.462;14.346;2023-06-19T06:57:33;9.57;;;8.50;;
29568;SDS011;16501;51.462;14.346;2023-06-19T06:59:58;10.70;;;8.07;;
29568;SDS011;16501;51.462;14.346;2023-06-19T07:02:23;11.48;;;8.15;;
29568;SDS011;16501;51.462;14.346;2023-06-19T07:04:49;11.70;;;8.13;;
29568;SDS011;16501;51.462;14.346;2023-06-19T07:07:14;9.00;;;7.75;;
29568;SDS011;16501;51.462;14.346;2023-06-19T07:09:39;8.45;;;7.65;;
29568;SDS011;16501;51.462;14.346;2023-06-19T07:12:05;9.18;;;7.47;;
29568;SDS011;16501;51.462;14.346;2023-06-19T07:14:32;8.70;;;6.95;;
29568;SDS011;16501;51.462;14.346;2023-06-19T07:16:57;8.35;;;6.90;;
29568;SDS011;16501;51.462;14.346;2023-06-19T07:19:25;9.52;;;7.07;;
29568;SDS011;16501;51.462;14.346;2023-06-19T07:21:50;10.90;;;7.03;;
29568;SDS011;16501;51.462;14.346;2023-06-19T07:24:16;7.78;;;6.20;;
29568;SDS011;16501;51.462;14.346;2023-06-19T07:26:41;9.57;;;6.45;;
29568;SDS011;16501;51.462;14.346;2023-06-19T07:29:06;9.23;;;6.93;;
29568;SDS011;16501;51.462;14.346;2023-06-19T07:31:32;9.45;;;7.10;;
29568;SDS011;16501;51.462;14.346;2023-06-19T07:33:57;7.82;;;6.47;;
29568;SDS011;16501;51.462;14.346;2023-06-19T07:36:22;9.48;;;6.60;;
29568;SDS011;16501;51.462;14.346;2023-06-19T07:38:47;10.18;;;6.72;;
29568;SDS011;16501;51.462;14.346;2023-06-19T07:41:13;8.63;;;6.93;;
29568;SDS011;16501;51.462;14.346;2023-06-19T07:43:38;7.00;;;6.30;;
29568;SDS011;16501;51.462;14.346;2023-06-19T07:46:03;8.10;;;6.28;;
29568;SDS011;16501;51.462;14.346;2023-06-19T07:48:29;7.20;;;6.50;;
29568;SDS011;16501;51.462;14.346;2023-06-19T07:50:54;8.55;;;6.88;;
29568;SDS011;16501;51.462;14.346;2023-06-19T07:53:20;7.82;;;6.38;;
29568;SDS011;16501;51.462;14.346;2023-06-19T07:55:45;13.35;;;6.38;;
29568;SDS011;16501;51.462;14.346;2023-06-19T07:58:10;8.93;;;6.10;;
29568;SDS011;16501;51.462;14.346;2023-06-19T08:00:36;10.43;;;6.10;;
29568;SDS011;16501;51.462;14.346;2023-06-19T08:03:01;7.43;;;6.60;;
29568;SDS011;16501;51.462;14.346;2023-06-19T08:05:27;8.60;;;6.18;;
29568;SDS011;16501;51.462;14.346;2023-06-19T08:07:52;6.97;;;6.25;;
29568;SDS011;16501;51.462;14.346;2023-06-19T08:10:17;7.95;;;6.38;;
29568;SDS011;16501;51.462;14.346;2023-06-19T08:12:43;14.77;;;6.63;;
29568;SDS011;16501;51.462;14.346;2023-06-19T08:15:09;6.57;;;5.90;;
29568;SDS011;16501;51.462;14.346;2023-06-19T08:17:35;11.13;;;6.55;;
29568;SDS011;16501;51.462;14.346;2023-06-19T08:20:01;6.43;;;5.75;;
29568;SDS011;16501;51.462;14.346;2023-06-19T08:22:27;9.20;;;6.38;;
29568;SDS011;16501;51.462;14.346;2023-06-19T08:24:53;8.23;;;6.22;;
29568;SDS011;16501;51.462;14.346;2023-06-19T08:27:18;7.80;;;6.70;;
29568;SDS011;16501;51.462;14.346;2023-06-19T08:29:43;8.18;;;5.88;;
29568;SDS011;16501;51.462;14.346;2023-06-19T08:32:08;8.60;;;6.18;;
29568;SDS011;16501;51.462;14.346;2023-06-19T08:34:34;7.28;;;6.10;;
29568;SDS011;16501;51.462;14.346;2023-06-19T08:37:00;7.88;;;5.85;;
29568;SDS011;16501;51.462;14.346;2023-06-19T08:39:25;7.05;;;6.35;;
29568;SDS011;16501;51.462;14.346;2023-06-19T08:41:50;6.50;;;5.75;;
29568;SDS011;16501;51.462;14.346;2023-06-19T08:44:18;6.35;;;5.63;;
29568;SDS011;16501;51.462;14.346;2023-06-19T08:46:43;7.07;;;5.97;;
29568;SDS011;16501;51.462;14.346;2023-06-19T08:49:08;8.55;;;5.93;;
29568;SDS011;16501;51.462;14.346;2023-06-19T08:51:36;9.13;;;6.38;;
29568;SDS011;16501;51.462;14.346;2023-06-19T08:54:02;7.32;;;5.82;;
29568;SDS011;16501;51.462;14.346;2023-06-19T08:56:29;7.38;;;5.65;;
29568;SDS011;16501;51.462;14.346;2023-06-19T08:59:13;6.55;;;5.82;;
29568;SDS011;16501;51.462;14.346;2023-06-19T09:01:39;8.52;;;6.60;;
29568;SDS011;16501;51.462;14.346;2023-06-19T09:04:12;10.95;;;6.47;;
29568;SDS011;16501;51.462;14.346;2023-06-19T09:06:48;9.13;;;6.65;;
29568;SDS011;16501;51.462;14.346;2023-06-19T09:09:15;6.20;;;5.57;;
29568;SDS011;16501;51.462;14.346;2023-06-19T09:11:41;7.05;;;6.35;;
29568;SDS011;16501;51.462;14.346;2023-06-19T09:14:08;8.80;;;6.22;;
29568;SDS011;16501;51.462;14.346;2023-06-19T09:16:41;7.25;;;6.55;;
29568;SDS011;16501;51.462;14.346;2023-06-19T09:21:34;8.50;;;6.78;;
29568;SDS011;16501;51.462;14.346;2023-06-19T09:24:04;10.95;;;6.65;;
29568;SDS011;16501;51.462;14.346;2023-06-19T09:26:30;10.90;;;6.65;;
29568;SDS011;16501;51.462;14.346;2023-06-19T09:28:55;8.77;;;6.32;;
29568;SDS011;16501;51.462;14.346;2023-06-19T09:31:30;11.05;;;6.65;;
29568;SDS011;16501;51.462;14.346;2023-06-19T09:33:56;7.97;;;6.80;;
29568;SDS011;16501;51.462;14.346;2023-06-19T09:36:22;11.98;;;6.65;;
29568;SDS011;16501;51.462;14.346;2023-06-19T09:38:48;8.30;;;6.40;;
29568;SDS011;16501;51.462;14.346;2023-06-19T09:41:14;7.55;;;6.63;;
29568;SDS011;16501;51.462;14.346;2023-06-19T09:43:43;7.40;;;6.50;;
29568;SDS011;16501;51.462;14.346;2023-06-19T09:46:10;9.95;;;7.38;;
29568;SDS011;16501;51.462;14.346;2023-06-19T09:48:41;6.40;;;5.63;;
29568;SDS011;16501;51.462;14.346;2023-06-19T09:53:45;8.57;;;6.15;;
29568;SDS011;16501;51.462;14.346;2023-06-19T09:56:12;8.77;;;6.38;;
29568;SDS011;16501;51.462;14.346;2023-06-19T09:58:39;8.82;;;7.03;;
29568;SDS011;16501;51.462;14.346;2023-06-19T10:01:07;11.50;;;6.50;;
29568;SDS011;16501;51.462;14.346;2023-06-19T10:03:33;9.55;;;7.03;;
29568;SDS011;16501;51.462;14.346;2023-06-19T10:06:00;7.55;;;6.50;;
29568;SDS011;16501;51.462;14.346;2023-06-19T10:08:29;11.75;;;7.20;;
29568;SDS011;16501;51.462;14.346;2023-06-19T10:10:56;7.63;;;6.40;;
29568;SDS011;16501;51.462;14.346;2023-06-19T10:13:30;8.55;;;6.75;;
29568;SDS011;16501;51.462;14.346;2023-06-19T10:15:57;12.18;;;7.07;;
29568;SDS011;16501;51.462;14.346;2023-06-19T10:18:22;8.80;;;7.07;;
29568;SDS011;16501;51.462;14.346;2023-06-19T10:20:50;8.45;;;6.93;;
29568;SDS011;16501;51.462;14.346;2023-06-19T10:23:16;8.27;;;6.78;;
29568;SDS011;16501;51.462;14.346;2023-06-19T10:26:01;10.23;;;6.88;;
29568;SDS011;16501;51.462;14.346;2023-06-19T10:28:27;9.05;;;6.80;;
29568;SDS011;16501;51.462;14.346;2023-06-19T10:31:01;7.60;;;6.60;;
29568;SDS011;16501;51.462;14.346;2023-06-19T10:33:31;7.50;;;6.80;;
29568;SDS011;16501;51.462;14.346;2023-06-19T10:35:58;10.07;;;6.75;;
29568;SDS011;16501;51.462;14.346;2023-06-19T10:38:25;10.45;;;6.82;;
29568;SDS011;16501;51.462;14.346;2023-06-19T10:40:50;9.13;;;7.03;;
29568;SDS011;16501;51.462;14.346;2023-06-19T10:43:19;9.60;;;7.10;;
29568;SDS011;16501;51.462;14.346;2023-06-19T10:45:46;10.77;;;7.03;;
29568;SDS011;16501;51.462;14.346;2023-06-19T10:48:17;7.53;;;6.53;;
29568;SDS011;16501;51.462;14.346;2023-06-19T10:50:44;8.05;;;7.15;;
29568;SDS011;16501;51.462;14.346;2023-06-19T10:53:09;7.97;;;6.93;;
29568;SDS011;16501;51.462;14.346;2023-06-19T10:55:34;7.70;;;6.88;;
29568;SDS011;16501;51.462;14.346;2023-06-19T10:57:59;7.70;;;6.90;;
29568;SDS011;16501;51.462;14.346;2023-06-19T11:00:26;10.75;;;7.05;;
29568;SDS011;16501;51.462;14.346;2023-06-19T11:02:54;10.93;;;6.90;;
29568;SDS011;16501;51.462;14.346;2023-06-19T11:05:20;11.88;;;7.55;;
29568;SDS011;16501;51.462;14.346;2023-06-19T11:07:54;10.48;;;7.82;;
29568;SDS011;16501;51.462;14.346;2023-06-19T11:10:24;11.25;;;7.47;;
29568;SDS011;16501;51.462;14.346;2023-06-19T11:12:53;9.88;;;7.15;;
29568;SDS011;16501;51.462;14.346;2023-06-19T11:15:32;8.95;;;7.00;;
29568;SDS011;16501;51.462;14.346;2023-06-19T11:17:58;8.23;;;7.18;;
29568;SDS011;16501;51.462;14.346;2023-06-19T11:20:25;11.75;;;7.38;;
29568;SDS011;16501;51.462;14.346;2023-06-19T11:22:54;9.77;;;7.00;;
29568;SDS011;16501;51.462;14.346;2023-06-19T11:25:20;8.93;;;7.45;;
29568;SDS011;16501;51.462;14.346;2023-06-19T11:27:46;9.85;;;7.63;;
29568;SDS011;16501;51.462;14.346;2023-06-19T11:30:16;7.17;;;6.40;;
29568;SDS011;16501;51.462;14.346;2023-06-19T11:32:42;8.88;;;6.47;;
29568;SDS011;16501;51.462;14.346;2023-06-19T11:35:10;9.48;;;7.13;;
29568;SDS011;16501;51.462;14.346;2023-06-19T11:37:40;11.55;;;7.20;;
29568;SDS011;16501;51.462;14.346;2023-06-19T11:40:06;11.13;;;7.38;;
29568;SDS011;16501;51.462;14.346;2023-06-19T11:42:47;8.73;;;7.10;;
29568;SDS011;16501;51.462;14.346;2023-06-19T11:45:13;11.00;;;6.93;;
29568;SDS011;16501;51.462;14.346;2023-06-19T11:47:39;8.77;;;7.53;;
29568;SDS011;16501;51.462;14.346;2023-06-19T11:50:05;7.47;;;6.68;;
29568;SDS011;16501;51.462;14.346;2023-06-19T11:52:31;8.13;;;7.28;;
29568;SDS011;16501;51.462;14.346;2023-06-19T11:54:56;12.50;;;7.53;;
29568;SDS011;16501;51.462;14.346;2023-06-19T11:57:22;9.85;;;7.65;;
29568;SDS011;16501;51.462;14.346;2023-06-19T11:59:47;10.40;;;7.43;;
29568;SDS011;16501;51.462;14.346;2023-06-19T12:02:12;8.20;;;7.37;;
29568;SDS011;16501;51.462;14.346;2023-06-19T12:04:38;10.00;;;7.05;;
29568;SDS011;16501;51.462;14.346;2023-06-19T12:07:03;10.45;;;7.68;;
29568;SDS011;16501;51.462;14.346;2023-06-19T12:09:29;10.77;;;7.95;;
29568;SDS011;16501;51.462;14.346;2023-06-19T12:11:55;10.85;;;6.65;;
29568;SDS011;16501;51.462;14.346;2023-06-19T12:14:20;8.50;;;7.05;;
29568;SDS011;16501;51.462;14.346;2023-06-19T12:16:46;9.10;;;7.43;;
29568;SDS011;16501;51.462;14.346;2023-06-19T12:19:12;8.98;;;7.30;;
29568;SDS011;16501;51.462;14.346;2023-06-19T12:21:37;10.02;;;7.43;;
29568;SDS011;16501;51.462;14.346;2023-06-19T12:24:02;8.43;;;7.15;;
29568;SDS011;16501;51.462;14.346;2023-06-19T12:26:28;8.80;;;7.63;;
29568;SDS011;16501;51.462;14.346;2023-06-19T12:28:53;9.75;;;7.45;;
29568;SDS011;16501;51.462;14.346;2023-06-19T12:31:19;8.13;;;6.37;;
29568;SDS011;16501;51.462;14.346;2023-06-19T12:33:44;9.23;;;6.90;;
29568;SDS011;16501;51.462;14.346;2023-06-19T12:36:12;8.32;;;6.53;;
29568;SDS011;16501;51.462;14.346;2023-06-19T12:38:39;8.52;;;7.30;;
29568;SDS011;16501;51.462;14.346;2023-06-19T12:41:05;11.35;;;7.40;;
29568;SDS011;16501;51.462;14.346;2023-06-19T12:43:30;11.95;;;7.38;;
29568;SDS011;16501;51.462;14.346;2023-06-19T12:45:57;10.20;;;7.45;;
29568;SDS011;16501;51.462;14.346;2023-06-19T12:48:24;10.80;;;6.95;;
29568;SDS011;16501;51.462;14.346;2023-06-19T12:50:49;11.75;;;7.68;;
29568;SDS011;16501;51.462;14.346;2023-06-19T12:53:15;7.67;;;6.83;;
29568;SDS011;16501;51.462;14.346;2023-06-19T12:55:40;6.93;;;6.22;;
29568;SDS011;16501;51.462;14.346;2023-06-19T12:58:05;7.93;;;6.95;;
29568;SDS011;16501;51.462;14.346;2023-06-19T13:00:30;8.10;;;7.30;;
29568;SDS011;16501;51.462;14.346;2023-06-19T13:02:56;8.35;;;7.50;;
29568;SDS011;16501;51.462;14.346;2023-06-19T13:05:21;11.50;;;7.20;;
29568;SDS011;16501;51.462;14.346;2023-06-19T13:07:47;8.53;;;6.87;;
29568;SDS011;16501;51.462;14.346;2023-06-19T13:10:12;11.70;;;7.68;;
29568;SDS011;16501;51.462;14.346;2023-06-19T13:12:37;7.93;;;7.13;;
29568;SDS011;16501;51.462;14.346;2023-06-19T13:15:02;9.23;;;6.93;;
29568;SDS011;16501;51.462;14.346;2023-06-19T13:17:28;9.27;;;7.28;;
29568;SDS011;16501;51.462;14.346;2023-06-19T13:19:53;9.95;;;7.53;;
29568;SDS011;16501;51.462;14.346;2023-06-19T13:22:19;10.75;;;7.50;;
29568;SDS011;16501;51.462;14.346;2023-06-19T13:24:44;15.27;;;7.28;;
29568;SDS011;16501;51.462;14.346;2023-06-19T13:27:09;9.48;;;7.50;;
29568;SDS011;16501;51.462;14.346;2023-06-19T13:29:34;9.00;;;7.20;;
29568;SDS011;16501;51.462;14.346;2023-06-19T13:32:00;9.55;;;6.93;;
29568;SDS011;16501;51.462;14.346;2023-06-19T13:34:25;13.88;;;7.20;;
29568;SDS011;16501;51.462;14.346;2023-06-19T13:36:51;7.75;;;6.57;;
29568;SDS011;16501;51.462;14.346;2023-06-19T13:39:16;9.32;;;6.85;;
29568;SDS011;16501;51.462;14.346;2023-06-19T13:41:44;11.73;;;7.20;;
29568;SDS011;16501;51.462;14.346;2023-06-19T13:44:11;12.02;;;6.78;;
29568;SDS011;16501;51.462;14.346;2023-06-19T13:46:37;8.45;;;6.65;;
29568;SDS011;16501;51.462;14.346;2023-06-19T13:49:02;8.82;;;7.13;;
29568;SDS011;16501;51.462;14.346;2023-06-19T13:51:28;8.82;;;6.70;;
29568;SDS011;16501;51.462;14.346;2023-06-19T13:53:53;7.70;;;7.00;;
29568;SDS011;16501;51.462;14.346;2023-06-19T13:56:19;8.02;;;7.10;;
29568;SDS011;16501;51.462;14.346;2023-06-19T13:58:45;10.35;;;7.78;;
29568;SDS011;16501;51.462;14.346;2023-06-19T14:01:10;7.90;;;7.10;;
29568;SDS011;16501;51.462;14.346;2023-06-19T14:03:36;14.80;;;7.53;;
29568;SDS011;16501;51.462;14.346;2023-06-19T14:06:02;10.65;;;7.38;;
29568;SDS011;16501;51.462;14.346;2023-06-19T14:08:27;8.10;;;7.30;;
29568;SDS011;16501;51.462;14.346;2023-06-19T14:10:54;8.18;;;6.95;;
29568;SDS011;16501;51.462;14.346;2023-06-19T14:13:19;8.70;;;7.80;;
29568;SDS011;16501;51.462;14.346;2023-06-19T14:15:44;10.88;;;8.00;;
29568;SDS011;16501;51.462;14.346;2023-06-19T14:18:09;8.25;;;6.93;;
29568;SDS011;16501;51.462;14.346;2023-06-19T14:20:35;12.27;;;7.22;;
29568;SDS011;16501;51.462;14.346;2023-06-19T14:23:00;10.88;;;7.18;;